createdAt,value
2018-12-02T00:01:33.993Z,99.90
2018-12-02T00:04:03.531Z,99.90
2018-12-02T00:06:32.656Z,99.90
2018-12-02T00:09:01.854Z,99.90
2018-12-02T00:11:31.009Z,99.90
2018-12-02T00:14:00.311Z,99.90
2018-12-02T00:16:29.713Z,99.90
2018-12-02T00:18:59.213Z,99.90
2018-12-02T00:21:28.646Z,99.90
2018-12-02T00:23:57.771Z,99.90
2018-12-02T00:26:27.000Z,99.90
2018-12-02T00:28:56.439Z,99.90
2018-12-02T00:31:25.622Z,99.90
2018-12-02T00:33:54.863Z,99.90
2018-12-02T00:36:24.039Z,99.90
2018-12-02T00:38:53.555Z,99.90
2018-12-02T00:41:22.594Z,99.90
2018-12-02T00:43:52.085Z,99.90
2018-12-02T00:46:21.178Z,99.90
2018-12-02T00:48:50.667Z,99.90
2018-12-02T00:51:19.839Z,99.90
2018-12-02T00:53:49.045Z,99.90
2018-12-02T00:56:16.656Z,99.90
2018-12-02T00:58:46.044Z,99.90
2018-12-02T01:01:15.141Z,99.90
2018-12-02T01:03:44.208Z,99.90
2018-12-02T01:06:14.131Z,99.90
2018-12-02T01:08:42.779Z,99.90
2018-12-02T01:11:12.189Z,99.90
2018-12-02T01:13:41.400Z,99.90
2018-12-02T01:16:10.635Z,99.90
2018-12-02T01:18:39.966Z,99.90
2018-12-02T01:21:09.314Z,99.90
2018-12-02T01:23:38.686Z,99.90
2018-12-02T01:26:08.096Z,99.90
2018-12-02T01:28:37.406Z,99.90
2018-12-02T01:31:06.564Z,99.90
2018-12-02T01:33:35.618Z,99.90
2018-12-02T01:36:04.606Z,99.90
2018-12-02T01:38:33.797Z,99.90
2018-12-02T01:41:02.741Z,99.90
2018-12-02T01:43:31.984Z,99.90
2018-12-02T01:46:01.105Z,99.90
2018-12-02T01:48:30.539Z,99.90
2018-12-02T01:50:59.866Z,99.90
2018-12-02T01:53:29.093Z,99.90
2018-12-02T01:55:58.624Z,99.90
2018-12-02T01:58:27.982Z,99.90
2018-12-02T02:00:57.282Z,99.90
2018-12-02T02:03:26.694Z,99.90
2018-12-02T02:05:55.983Z,99.90
2018-12-02T02:08:25.335Z,99.90
2018-12-02T02:10:54.752Z,99.90
2018-12-02T02:13:24.398Z,99.90
2018-12-02T02:15:53.667Z,99.90
2018-12-02T02:18:22.960Z,99.90
2018-12-02T02:20:52.415Z,99.90
2018-12-02T02:23:21.754Z,99.90
2018-12-02T02:25:51.534Z,99.90
2018-12-02T02:28:20.726Z,99.90
2018-12-02T02:30:50.050Z,99.90
2018-12-02T02:33:19.549Z,99.90
2018-12-02T02:35:48.801Z,99.90
2018-12-02T02:38:18.133Z,99.90
2018-12-02T02:40:47.440Z,99.90
2018-12-02T02:43:16.691Z,99.90
2018-12-02T02:45:45.684Z,99.90
2018-12-02T02:48:14.930Z,99.90
2018-12-02T02:50:44.240Z,99.90
2018-12-02T02:53:13.527Z,99.90
2018-12-02T02:55:42.835Z,99.90
2018-12-02T02:58:12.029Z,99.90
2018-12-02T03:00:41.430Z,99.90
2018-12-02T03:03:10.583Z,99.90
2018-12-02T03:05:39.975Z,99.90
2018-12-02T03:08:09.162Z,99.90
2018-12-02T03:10:38.259Z,99.90
2018-12-02T03:13:07.366Z,99.90
2018-12-02T03:15:36.465Z,99.90
2018-12-02T03:18:05.753Z,99.90
2018-12-02T03:20:35.091Z,99.90
2018-12-02T03:23:04.157Z,99.90
2018-12-02T03:25:33.406Z,99.90
2018-12-02T03:28:02.866Z,99.90
2018-12-02T03:30:32.191Z,99.90
2018-12-02T03:33:01.832Z,99.90
2018-12-02T03:35:30.865Z,99.90
2018-12-02T03:38:00.160Z,99.90
2018-12-02T03:40:29.283Z,99.90
2018-12-02T03:42:58.438Z,99.90
2018-12-02T03:45:28.120Z,99.90
2018-12-02T03:47:57.599Z,99.90
2018-12-02T03:50:27.011Z,99.90
2018-12-02T03:52:56.139Z,99.90
2018-12-02T03:55:25.382Z,99.90
2018-12-02T03:57:54.567Z,99.90
2018-12-02T04:00:25.518Z,99.90
2018-12-02T04:02:55.438Z,99.90
2018-12-02T04:05:25.304Z,99.90
2018-12-02T04:07:54.286Z,99.90
2018-12-02T04:10:23.467Z,99.90
2018-12-02T04:12:52.846Z,99.90
2018-12-02T04:15:22.646Z,99.90
2018-12-02T04:17:51.771Z,99.90
2018-12-02T04:20:21.134Z,99.90
2018-12-02T04:22:50.943Z,99.90
2018-12-02T04:25:21.022Z,99.90
2018-12-02T04:27:50.387Z,99.90
2018-12-02T04:30:20.203Z,99.90
2018-12-02T04:32:50.105Z,99.90
2018-12-02T04:35:22.144Z,99.90
2018-12-02T04:37:51.493Z,99.90
2018-12-02T04:40:20.661Z,99.90
2018-12-02T04:42:50.010Z,99.90
2018-12-02T04:45:19.686Z,99.90
2018-12-02T04:47:48.759Z,99.90
2018-12-02T04:50:21.449Z,99.90
2018-12-02T04:52:50.721Z,99.90
2018-12-02T04:55:19.871Z,99.90
2018-12-02T04:57:49.147Z,99.90
2018-12-02T05:00:19.719Z,99.90
2018-12-02T05:02:50.422Z,99.90
2018-12-02T05:05:23.103Z,99.90
2018-12-02T05:07:52.384Z,99.90
2018-12-02T05:10:21.792Z,99.90
2018-12-02T05:12:51.165Z,99.90
2018-12-02T05:15:20.906Z,99.90
2018-12-02T05:17:50.262Z,99.90
2018-12-02T05:20:19.871Z,99.90
2018-12-02T05:22:49.158Z,99.90
2018-12-02T05:25:18.715Z,99.90
2018-12-02T05:27:47.530Z,99.90
2018-12-02T05:30:19.888Z,99.90
2018-12-02T05:32:50.775Z,99.90
2018-12-02T05:35:20.120Z,99.90
2018-12-02T05:37:49.958Z,99.90
2018-12-02T05:40:20.949Z,99.90
2018-12-02T05:42:50.509Z,99.90
2018-12-02T05:45:19.621Z,99.90
2018-12-02T05:47:48.651Z,99.90
2018-12-02T05:50:21.557Z,99.90
2018-12-02T05:52:52.631Z,99.90
2018-12-02T05:55:23.232Z,99.90
2018-12-02T05:57:52.421Z,99.90
2018-12-02T06:00:22.499Z,99.90
2018-12-02T06:02:51.638Z,99.90
2018-12-02T06:05:21.246Z,99.90
2018-12-02T06:07:50.743Z,99.90
2018-12-02T06:10:20.765Z,99.90
2018-12-02T06:12:50.218Z,99.90
2018-12-02T06:15:20.234Z,99.90
2018-12-02T06:17:49.574Z,99.90
2018-12-02T06:20:21.587Z,99.90
2018-12-02T06:22:51.388Z,99.90
2018-12-02T06:25:20.452Z,99.90
2018-12-02T06:27:49.431Z,99.90
2018-12-02T06:30:21.231Z,99.90
2018-12-02T06:32:53.391Z,99.90
2018-12-02T06:35:22.716Z,99.90
2018-12-02T06:37:53.127Z,99.90
2018-12-02T06:40:24.783Z,99.90
2018-12-02T06:42:54.110Z,99.90
2018-12-02T06:45:23.210Z,99.90
2018-12-02T06:47:52.326Z,99.90
2018-12-02T06:50:24.984Z,99.90
2018-12-02T06:52:54.610Z,99.90
2018-12-02T06:55:41.587Z,99.90
2018-12-02T06:58:22.207Z,99.90
2018-12-02T07:05:10.254Z,99.90
2018-12-02T07:07:39.346Z,99.90
2018-12-02T07:10:08.391Z,99.90
2018-12-02T07:12:37.755Z,99.90
2018-12-02T07:15:06.707Z,99.90
2018-12-02T07:17:41.510Z,99.90
2018-12-02T07:20:13.442Z,99.90
2018-12-02T07:22:44.671Z,99.90
2018-12-02T07:25:16.811Z,99.90
2018-12-02T07:27:46.002Z,99.90
2018-12-02T07:30:16.146Z,99.90
2018-12-02T07:32:45.353Z,99.90
2018-12-02T07:35:15.139Z,99.90
2018-12-02T07:37:50.621Z,99.90
2018-12-02T07:40:30.939Z,99.90
2018-12-02T07:42:59.998Z,99.90
2018-12-02T07:45:29.507Z,99.90
2018-12-02T07:47:58.832Z,99.90
2018-12-02T07:50:28.100Z,99.90
2018-12-02T07:52:57.236Z,99.90
2018-12-02T07:55:26.614Z,99.90
2018-12-02T07:57:55.760Z,99.90
2018-12-02T08:00:25.214Z,99.90
2018-12-02T08:02:54.271Z,99.90
2018-12-02T08:05:23.779Z,99.90
2018-12-02T08:07:53.189Z,99.90
2018-12-02T08:10:22.618Z,99.90
2018-12-02T08:12:51.636Z,99.90
2018-12-02T08:15:21.133Z,99.90
2018-12-02T08:17:50.517Z,99.90
2018-12-02T08:20:19.617Z,99.90
2018-12-02T08:22:51.555Z,99.90
2018-12-02T08:25:19.611Z,99.90
2018-12-02T08:27:49.070Z,99.90
2018-12-02T08:30:20.093Z,99.90
2018-12-02T08:32:49.440Z,99.90
2018-12-02T08:35:19.258Z,99.90
2018-12-02T08:37:50.911Z,99.90
2018-12-02T08:40:20.500Z,99.90
2018-12-02T08:42:49.911Z,99.90
2018-12-02T08:45:19.467Z,99.90
2018-12-02T08:47:48.580Z,99.90
2018-12-02T08:50:19.380Z,99.90
2018-12-02T08:52:49.305Z,99.90
2018-12-02T08:55:19.130Z,99.90
2018-12-02T08:57:49.027Z,99.90
2018-12-02T09:00:19.865Z,99.90
2018-12-02T09:02:57.811Z,99.90
2018-12-02T09:05:26.970Z,99.90
2018-12-02T09:07:57.725Z,99.90
2018-12-02T09:10:31.273Z,99.90
2018-12-02T09:13:03.059Z,99.90
2018-12-02T09:15:32.562Z,99.90
2018-12-02T09:18:01.863Z,99.90
2018-12-02T09:20:32.271Z,99.90
2018-12-02T09:23:01.430Z,99.90
2018-12-02T09:25:31.422Z,99.90
2018-12-02T09:28:01.283Z,99.90
2018-12-02T09:30:31.146Z,99.90
2018-12-02T09:33:00.756Z,99.90
2018-12-02T09:35:30.225Z,99.90
2018-12-02T09:37:59.343Z,99.90
2018-12-02T09:40:28.790Z,99.90
2018-12-02T09:42:58.298Z,99.90
2018-12-02T09:45:29.588Z,99.90
2018-12-02T09:47:59.646Z,99.90
2018-12-02T09:50:28.993Z,99.90
2018-12-02T09:52:58.406Z,99.90
2018-12-02T09:55:35.642Z,99.90
2018-12-02T09:58:05.063Z,99.90
2018-12-02T10:00:35.411Z,99.90
2018-12-02T10:03:04.962Z,99.90
2018-12-02T10:05:34.234Z,99.90
2018-12-02T10:08:03.630Z,99.90
2018-12-02T10:10:33.127Z,99.90
2018-12-02T10:13:06.349Z,99.90
2018-12-02T10:15:35.406Z,99.90
2018-12-02T10:18:04.909Z,97.80
2018-12-02T10:20:34.102Z,84.30
2018-12-02T10:23:03.435Z,83.10
2018-12-02T10:25:32.626Z,91.80
2018-12-02T10:28:02.660Z,99.90
2018-12-02T10:30:31.890Z,75.80
2018-12-02T10:33:01.553Z,59.60
2018-12-02T10:35:31.154Z,55.50
2018-12-02T10:38:00.557Z,55.80
2018-12-02T10:40:29.621Z,53.50
2018-12-02T10:42:59.259Z,50.30
2018-12-02T10:45:29.011Z,48.30
2018-12-02T10:48:01.106Z,46.00
2018-12-02T10:50:35.731Z,44.00
2018-12-02T10:53:10.443Z,46.90
2018-12-02T10:55:41.117Z,45.50
2018-12-02T10:58:13.424Z,44.70
2018-12-02T11:00:47.914Z,44.40
2018-12-02T11:03:17.328Z,46.60
2018-12-02T11:05:46.925Z,47.50
2018-12-02T11:08:16.317Z,47.20
2018-12-02T11:10:45.472Z,44.60
2018-12-02T11:13:14.881Z,43.80
2018-12-02T11:15:45.628Z,41.50
2018-12-02T11:18:15.070Z,45.60
2018-12-02T11:20:44.480Z,45.10
2018-12-02T11:23:13.750Z,41.70
2018-12-02T11:25:43.415Z,40.10
2018-12-02T11:28:12.662Z,41.80
2018-12-02T11:30:42.249Z,46.30
2018-12-02T11:33:11.378Z,49.10
2018-12-02T11:35:41.008Z,49.60
2018-12-02T11:38:09.990Z,46.60
2018-12-02T11:40:39.791Z,47.20
2018-12-02T11:43:09.282Z,54.10
2018-12-02T11:45:38.525Z,61.70
2018-12-02T11:48:08.791Z,91.80
2018-12-02T11:50:38.128Z,99.90
2018-12-02T11:53:07.668Z,99.90
2018-12-02T11:55:36.864Z,99.90
2018-12-02T11:58:06.267Z,99.90
2018-12-02T12:00:37.197Z,99.90
2018-12-02T12:03:06.276Z,99.90
2018-12-02T12:05:35.549Z,99.90
2018-12-02T12:08:05.406Z,99.90
2018-12-02T12:10:34.747Z,99.90
2018-12-02T12:13:04.149Z,99.90
2018-12-02T12:15:33.791Z,99.90
2018-12-02T12:18:03.189Z,99.90
2018-12-02T12:20:34.917Z,99.90
2018-12-02T12:23:04.236Z,99.90
2018-12-02T12:25:33.736Z,99.90
2018-12-02T12:28:02.764Z,99.90
2018-12-02T12:30:32.950Z,99.90
2018-12-02T12:33:02.446Z,99.90
2018-12-02T12:35:32.207Z,99.90
2018-12-02T12:38:01.624Z,99.90
2018-12-02T12:40:32.556Z,99.90
2018-12-02T12:43:34.288Z,99.90
2018-12-02T12:46:03.533Z,99.90
2018-12-02T12:48:32.872Z,99.90
2018-12-02T12:51:02.174Z,99.90
2018-12-02T12:53:31.292Z,99.90
2018-12-02T12:56:00.635Z,99.90
2018-12-02T12:58:30.182Z,99.90
2018-12-02T13:00:59.558Z,99.90
2018-12-02T13:03:29.128Z,99.90
2018-12-02T13:05:58.744Z,99.90
2018-12-02T13:08:28.893Z,99.90
2018-12-02T13:10:58.310Z,99.90
2018-12-02T13:13:27.692Z,99.90
2018-12-02T13:15:57.120Z,99.90
2018-12-02T13:18:26.574Z,99.90
2018-12-02T13:20:56.606Z,99.90
2018-12-02T13:23:26.252Z,99.90
2018-12-02T13:25:55.685Z,99.90
2018-12-02T13:28:24.929Z,99.90
2018-12-02T13:30:54.430Z,99.90
2018-12-02T13:33:23.864Z,99.90
2018-12-02T13:35:53.143Z,99.90
2018-12-02T13:38:22.573Z,99.90
2018-12-02T13:40:51.851Z,99.90
2018-12-02T13:43:22.271Z,99.90
2018-12-02T13:45:51.807Z,99.90
2018-12-02T13:48:21.377Z,99.90
2018-12-02T13:50:50.680Z,99.90
2018-12-02T13:53:19.892Z,99.90
2018-12-02T13:55:49.266Z,99.90
2018-12-02T13:58:19.942Z,99.90
2018-12-02T14:00:49.341Z,99.90
2018-12-02T14:03:18.635Z,99.90
2018-12-02T14:05:48.539Z,99.90
2018-12-02T14:08:17.843Z,99.90
2018-12-02T14:10:47.091Z,99.90
2018-12-02T14:13:18.450Z,99.90
2018-12-02T14:16:13.223Z,99.90
2018-12-02T14:18:44.017Z,99.90
2018-12-02T14:21:13.357Z,99.90
2018-12-02T14:23:43.599Z,99.90
2018-12-02T14:26:15.410Z,99.90
2018-12-02T14:28:51.886Z,99.90
2018-12-02T14:31:21.150Z,99.90
2018-12-02T14:33:50.572Z,99.90
2018-12-02T14:36:19.948Z,99.90
2018-12-02T14:38:49.119Z,99.90
2018-12-02T14:41:18.438Z,99.90
2018-12-02T14:43:47.769Z,99.90
2018-12-02T14:46:17.231Z,99.90
2018-12-02T14:48:46.509Z,99.90
2018-12-02T14:51:15.919Z,99.90
2018-12-02T14:53:45.894Z,99.90
2018-12-02T14:56:15.139Z,99.90
2018-12-02T14:58:44.559Z,99.90
2018-12-02T15:01:14.123Z,99.90
2018-12-02T15:03:43.590Z,99.90
2018-12-02T15:06:13.178Z,99.90
2018-12-02T15:08:42.837Z,99.90
2018-12-02T15:11:12.231Z,99.90
2018-12-02T15:13:41.690Z,99.90
2018-12-02T15:16:11.074Z,99.90
2018-12-02T15:18:40.398Z,99.90
2018-12-02T15:21:09.911Z,99.90
2018-12-02T15:23:39.234Z,99.90
2018-12-02T15:26:08.303Z,99.90
2018-12-02T15:28:37.575Z,99.90
2018-12-02T15:31:08.278Z,99.90
2018-12-02T15:33:37.785Z,99.90
2018-12-02T15:36:07.384Z,99.90
2018-12-02T15:38:36.657Z,99.90
2018-12-02T15:41:06.143Z,99.90
2018-12-02T15:43:35.676Z,99.90
2018-12-02T15:46:05.254Z,99.90
2018-12-02T15:48:34.954Z,99.90
2018-12-02T15:51:04.599Z,99.90
2018-12-02T15:53:33.777Z,99.90
2018-12-02T15:56:03.595Z,99.90
2018-12-02T15:58:33.270Z,99.90
2018-12-02T16:01:02.361Z,99.90
2018-12-02T16:03:31.753Z,99.90
2018-12-02T16:06:01.006Z,99.90
2018-12-02T16:08:30.634Z,99.90
2018-12-02T16:11:00.163Z,99.90
2018-12-02T16:13:29.304Z,99.90
2018-12-02T16:15:58.577Z,99.90
2018-12-02T16:18:27.712Z,99.90
2018-12-02T16:20:57.205Z,99.90
2018-12-02T16:23:27.007Z,99.90
2018-12-02T16:25:56.373Z,99.90
2018-12-02T16:28:25.857Z,99.90
2018-12-02T16:30:55.968Z,99.90
2018-12-02T16:33:25.579Z,99.90
2018-12-02T16:35:55.054Z,99.90
2018-12-02T16:38:24.363Z,99.90
2018-12-02T16:40:53.993Z,99.90
2018-12-02T16:43:23.773Z,99.90
2018-12-02T16:45:53.148Z,99.90
2018-12-02T16:48:22.708Z,99.90
2018-12-02T16:50:52.257Z,99.90
2018-12-02T16:53:26.022Z,99.90
2018-12-02T16:56:25.871Z,99.90
2018-12-02T16:59:21.820Z,99.90
2018-12-02T17:01:55.856Z,99.90
2018-12-02T17:04:25.372Z,99.90
2018-12-02T17:06:54.883Z,99.90
2018-12-02T17:09:24.315Z,99.90
2018-12-02T17:11:54.116Z,99.90
2018-12-02T17:14:23.324Z,99.90
2018-12-02T17:16:52.795Z,99.90
2018-12-02T17:19:22.254Z,99.90
2018-12-02T17:21:51.073Z,99.90
2018-12-02T17:24:20.793Z,99.90
2018-12-02T17:26:50.214Z,99.90
2018-12-02T17:29:20.480Z,99.90
2018-12-02T17:31:53.058Z,99.90
2018-12-02T17:34:22.845Z,99.90
2018-12-02T17:36:52.536Z,99.90
2018-12-02T17:39:24.374Z,99.90
2018-12-02T17:42:01.154Z,99.90
2018-12-02T17:44:30.535Z,99.90
2018-12-02T17:47:00.234Z,99.90
2018-12-02T17:49:29.683Z,99.90
2018-12-02T17:51:59.241Z,99.90
2018-12-02T17:54:28.294Z,99.90
2018-12-02T17:56:57.842Z,99.90
2018-12-02T17:59:27.512Z,99.90
2018-12-02T18:01:56.828Z,99.90
2018-12-02T18:04:26.399Z,99.90
2018-12-02T18:06:56.072Z,99.90
2018-12-02T18:09:25.682Z,99.90
2018-12-02T18:11:54.861Z,99.90
2018-12-02T18:14:24.326Z,99.90
2018-12-02T18:16:53.907Z,99.90
2018-12-02T18:19:24.296Z,99.90
2018-12-02T18:21:55.030Z,99.90
2018-12-02T18:24:23.579Z,99.90
2018-12-02T18:26:53.316Z,99.90
2018-12-02T18:29:22.774Z,99.90
2018-12-02T18:31:52.029Z,99.90
2018-12-02T18:34:21.207Z,99.90
2018-12-02T18:36:50.818Z,99.90
2018-12-02T18:39:20.379Z,99.90
2018-12-02T18:41:51.792Z,99.90
2018-12-02T18:44:21.258Z,99.90
2018-12-02T18:46:50.906Z,99.90
2018-12-02T18:49:20.328Z,99.90
2018-12-02T18:51:49.860Z,99.90
2018-12-02T18:54:19.337Z,99.90
2018-12-02T18:56:49.204Z,99.90
2018-12-02T18:59:18.912Z,99.90
2018-12-02T19:01:48.453Z,99.90
2018-12-02T19:04:17.786Z,99.90
2018-12-02T19:06:47.219Z,99.90
2018-12-02T19:09:16.530Z,99.90
2018-12-02T19:11:45.760Z,99.90
2018-12-02T19:14:14.831Z,99.90
2018-12-02T19:16:44.279Z,99.90
2018-12-02T19:19:13.723Z,99.90
2018-12-02T19:21:43.379Z,99.90
2018-12-02T19:24:12.613Z,99.90
2018-12-02T19:26:41.975Z,99.90
2018-12-02T19:29:11.215Z,99.90
2018-12-02T19:31:40.493Z,99.90
2018-12-02T19:34:10.172Z,99.90
2018-12-02T19:36:58.234Z,99.90
2018-12-02T19:39:27.943Z,99.90
2018-12-02T19:41:57.274Z,99.90
2018-12-02T19:44:26.994Z,99.90
2018-12-02T19:46:56.689Z,99.90
2018-12-02T19:49:25.896Z,99.90
2018-12-02T19:51:55.209Z,99.90
2018-12-02T19:54:24.669Z,99.90
2018-12-02T19:56:54.200Z,99.90
2018-12-02T19:59:23.538Z,99.90
2018-12-02T20:01:52.766Z,99.90
2018-12-02T20:04:22.402Z,99.90
2018-12-02T20:06:52.046Z,99.90
2018-12-02T20:09:21.367Z,99.90
2018-12-02T20:11:50.670Z,99.90
2018-12-02T20:14:20.112Z,99.90
2018-12-02T20:16:49.514Z,99.90
2018-12-02T20:19:23.762Z,99.90
2018-12-02T20:21:53.121Z,99.90
2018-12-02T20:24:27.572Z,99.90
2018-12-02T20:26:57.375Z,99.90
2018-12-02T20:29:26.513Z,99.90
2018-12-02T20:31:55.892Z,99.90
2018-12-02T20:34:25.367Z,99.90
2018-12-02T20:36:54.591Z,99.90
2018-12-02T20:39:24.034Z,99.90
2018-12-02T20:41:53.571Z,99.90
2018-12-02T20:44:23.388Z,99.90
2018-12-02T20:46:53.147Z,99.90
2018-12-02T20:49:22.447Z,99.90
2018-12-02T20:51:51.649Z,99.90
2018-12-02T20:54:21.227Z,99.90
2018-12-02T20:56:50.337Z,99.90
2018-12-02T20:59:19.770Z,99.90
2018-12-02T21:01:48.895Z,99.90
2018-12-02T21:04:18.473Z,99.90
2018-12-02T21:06:47.693Z,99.90
2018-12-02T21:09:16.852Z,99.90
2018-12-02T21:11:46.082Z,99.90
2018-12-02T21:14:15.612Z,99.90
2018-12-02T21:16:44.955Z,99.90
2018-12-02T21:19:14.704Z,99.90
2018-12-02T21:21:44.752Z,99.90
2018-12-02T21:24:14.037Z,99.90
2018-12-02T21:26:43.214Z,99.90
2018-12-02T21:29:12.686Z,99.90
2018-12-02T21:31:41.933Z,99.90
2018-12-02T21:34:11.210Z,99.90
2018-12-02T21:36:40.448Z,99.90
2018-12-02T21:39:10.654Z,99.90
2018-12-02T21:41:39.763Z,99.90
2018-12-02T21:44:09.408Z,99.90
2018-12-02T21:46:38.898Z,99.90
2018-12-02T21:49:09.256Z,99.90
2018-12-02T21:51:38.654Z,99.90
2018-12-02T21:54:08.019Z,99.90
2018-12-02T21:56:37.414Z,99.90
2018-12-02T21:59:06.659Z,99.90
2018-12-02T22:01:35.775Z,99.90
2018-12-02T22:04:05.124Z,99.90
2018-12-02T22:06:34.226Z,99.90
2018-12-02T22:09:03.711Z,99.90
2018-12-02T22:11:33.134Z,99.90
2018-12-02T22:14:02.408Z,99.90
2018-12-02T22:16:31.650Z,99.90
2018-12-02T22:19:01.208Z,99.90
2018-12-02T22:21:30.502Z,99.90
2018-12-02T22:24:01.437Z,99.90
2018-12-02T22:26:29.163Z,99.90
2018-12-02T22:28:58.477Z,99.90
2018-12-02T22:31:27.960Z,99.90
2018-12-02T22:33:57.254Z,99.90
2018-12-02T22:36:26.645Z,99.90
2018-12-02T22:38:56.296Z,99.90
2018-12-02T22:41:25.748Z,99.90
2018-12-02T22:43:54.999Z,99.90
2018-12-02T22:46:24.364Z,99.90
2018-12-02T22:48:53.661Z,99.90
2018-12-02T22:51:23.063Z,99.90
2018-12-02T22:53:52.466Z,99.90
2018-12-02T22:56:21.971Z,99.90
2018-12-02T22:58:51.288Z,99.90
2018-12-02T23:02:27.242Z,99.90
2018-12-02T23:04:56.867Z,99.90
2018-12-02T23:07:27.017Z,99.90
2018-12-02T23:09:56.704Z,99.90
2018-12-02T23:12:25.887Z,99.90
2018-12-02T23:14:55.326Z,99.90
2018-12-02T23:17:24.636Z,99.90
2018-12-02T23:19:54.095Z,99.90
2018-12-02T23:22:23.341Z,99.90
2018-12-02T23:24:52.985Z,99.90
2018-12-02T23:27:22.234Z,99.90
2018-12-02T23:29:51.615Z,99.90
2018-12-02T23:32:21.172Z,99.90
2018-12-02T23:34:50.347Z,99.90
2018-12-02T23:37:20.683Z,99.90
2018-12-02T23:39:49.069Z,99.90
2018-12-02T23:42:18.330Z,99.90
2018-12-02T23:44:47.892Z,99.90
2018-12-02T23:47:17.074Z,99.90
2018-12-02T23:49:46.176Z,99.90
2018-12-02T23:52:15.890Z,99.90
2018-12-02T23:54:45.206Z,99.90
2018-12-02T23:57:14.382Z,99.90
2018-12-02T23:59:43.703Z,99.90
